Burnside, Louisiana
Current Conditions -  °F | °C
As of 5:55 PM on Wednesday 22 Oct 2014 (Local Time) from KL38 Reporting Station
Clear Clear  
Wind Chill: 75°   Ceiling: Unl
Heat Index: 75°   Visibility: 10mi
Dew Point: 53°   Wind: 3mph
Humidity: 46%   Direction: 10°N
Pressure: 30.03"   Gusts: NA
Location:  30.14°N, 90.92°W
Report Text: KL38 222255Z AUTO 01003KT 10SM CLR 24/12 A3003 RMK AO2 T02410118
Loading
Personal Weather Stations






























Interactive Weather Map
Tropical Storm Tracking
New forecast layout! Learn more

10-Day Weather Forecast

Advertisements
Track Severe Weather on mobile